sensor_id;sensor_type;location;lat;lon;timestamp;P1;durP1;ratioP1;P2;durP2;ratioP2
77152;SDS011;66124;51.146;17.072;2023-04-25T00:02:15;0.90;;;0.70;;
77152;SDS011;66124;51.146;17.072;2023-04-25T00:04:44;2.50;;;0.70;;
77152;SDS011;66124;51.146;17.072;2023-04-25T00:07:13;3.10;;;0.80;;
77152;SDS011;66124;51.146;17.072;2023-04-25T00:09:44;1.20;;;1.00;;
77152;SDS011;66124;51.146;17.072;2023-04-25T00:12:14;1.60;;;0.70;;
77152;SDS011;66124;51.146;17.072;2023-04-25T00:14:43;1.00;;;0.60;;
77152;SDS011;66124;51.146;17.072;2023-04-25T00:17:13;1.40;;;0.70;;
77152;SDS011;66124;51.146;17.072;2023-04-25T00:19:43;4.60;;;0.80;;
77152;SDS011;66124;51.146;17.072;2023-04-25T00:22:12;1.50;;;0.80;;
77152;SDS011;66124;51.146;17.072;2023-04-25T00:24:41;3.40;;;0.60;;
77152;SDS011;66124;51.146;17.072;2023-04-25T00:27:11;1.10;;;0.80;;
77152;SDS011;66124;51.146;17.072;2023-04-25T00:29:40;1.00;;;0.70;;
77152;SDS011;66124;51.146;17.072;2023-04-25T00:32:10;1.20;;;0.70;;
77152;SDS011;66124;51.146;17.072;2023-04-25T00:47:05;2.80;;;0.60;;
77152;SDS011;66124;51.146;17.072;2023-04-25T00:49:36;0.70;;;0.60;;
77152;SDS011;66124;51.146;17.072;2023-04-25T00:52:05;0.50;;;0.40;;
77152;SDS011;66124;51.146;17.072;2023-04-25T00:54:35;0.60;;;0.50;;
77152;SDS011;66124;51.146;17.072;2023-04-25T00:57:04;0.80;;;0.70;;
77152;SDS011;66124;51.146;17.072;2023-04-25T00:59:34;0.60;;;0.50;;
77152;SDS011;66124;51.146;17.072;2023-04-25T01:02:05;1.30;;;0.60;;
77152;SDS011;66124;51.146;17.072;2023-04-25T01:04:34;0.70;;;0.40;;
77152;SDS011;66124;51.146;17.072;2023-04-25T01:07:04;0.60;;;0.60;;
77152;SDS011;66124;51.146;17.072;2023-04-25T01:09:34;1.20;;;0.70;;
77152;SDS011;66124;51.146;17.072;2023-04-25T01:12:04;0.50;;;0.50;;
77152;SDS011;66124;51.146;17.072;2023-04-25T01:14:34;1.30;;;0.60;;
77152;SDS011;66124;51.146;17.072;2023-04-25T01:17:04;2.30;;;0.80;;
77152;SDS011;66124;51.146;17.072;2023-04-25T01:19:34;0.70;;;0.50;;
77152;SDS011;66124;51.146;17.072;2023-04-25T01:22:03;0.70;;;0.70;;
77152;SDS011;66124;51.146;17.072;2023-04-25T01:24:34;0.90;;;0.50;;
77152;SDS011;66124;51.146;17.072;2023-04-25T01:27:04;1.30;;;0.70;;
77152;SDS011;66124;51.146;17.072;2023-04-25T01:29:34;1.30;;;0.60;;
77152;SDS011;66124;51.146;17.072;2023-04-25T01:32:04;1.30;;;0.70;;
77152;SDS011;66124;51.146;17.072;2023-04-25T01:34:35;1.40;;;0.80;;
77152;SDS011;66124;51.146;17.072;2023-04-25T01:37:04;1.20;;;0.80;;
77152;SDS011;66124;51.146;17.072;2023-04-25T01:39:33;0.90;;;0.70;;
77152;SDS011;66124;51.146;17.072;2023-04-25T01:42:03;2.60;;;1.00;;
77152;SDS011;66124;51.146;17.072;2023-04-25T01:44:33;1.70;;;1.00;;
77152;SDS011;66124;51.146;17.072;2023-04-25T01:47:02;1.30;;;0.90;;
77152;SDS011;66124;51.146;17.072;2023-04-25T01:49:32;1.40;;;0.70;;
77152;SDS011;66124;51.146;17.072;2023-04-25T01:52:01;1.80;;;1.00;;
77152;SDS011;66124;51.146;17.072;2023-04-25T01:54:31;1.10;;;0.90;;
77152;SDS011;66124;51.146;17.072;2023-04-25T01:57:00;0.80;;;0.70;;
77152;SDS011;66124;51.146;17.072;2023-04-25T02:04:40;1.50;;;1.10;;
77152;SDS011;66124;51.146;17.072;2023-04-25T02:07:09;3.60;;;1.30;;
77152;SDS011;66124;51.146;17.072;2023-04-25T02:09:39;2.40;;;1.40;;
77152;SDS011;66124;51.146;17.072;2023-04-25T02:12:09;1.50;;;1.40;;
77152;SDS011;66124;51.146;17.072;2023-04-25T02:14:39;1.50;;;1.40;;
77152;SDS011;66124;51.146;17.072;2023-04-25T02:17:08;3.10;;;1.70;;
77152;SDS011;66124;51.146;17.072;2023-04-25T02:19:38;3.90;;;1.20;;
77152;SDS011;66124;51.146;17.072;2023-04-25T02:22:07;3.20;;;1.20;;
77152;SDS011;66124;51.146;17.072;2023-04-25T02:24:37;3.70;;;1.70;;
77152;SDS011;66124;51.146;17.072;2023-04-25T02:27:06;2.90;;;1.60;;
77152;SDS011;66124;51.146;17.072;2023-04-25T02:29:35;2.70;;;1.70;;
77152;SDS011;66124;51.146;17.072;2023-04-25T02:32:05;1.90;;;1.40;;
77152;SDS011;66124;51.146;17.072;2023-04-25T02:34:34;2.00;;;1.50;;
77152;SDS011;66124;51.146;17.072;2023-04-25T02:37:04;2.50;;;1.40;;
77152;SDS011;66124;51.146;17.072;2023-04-25T02:39:33;1.70;;;1.40;;
77152;SDS011;66124;51.146;17.072;2023-04-25T02:42:02;2.50;;;1.60;;
77152;SDS011;66124;51.146;17.072;2023-04-25T02:44:32;1.90;;;1.40;;
77152;SDS011;66124;51.146;17.072;2023-04-25T02:47:01;1.90;;;1.30;;
77152;SDS011;66124;51.146;17.072;2023-04-25T02:49:31;3.50;;;2.00;;
77152;SDS011;66124;51.146;17.072;2023-04-25T02:52:00;4.30;;;2.00;;
77152;SDS011;66124;51.146;17.072;2023-04-25T02:54:30;2.60;;;1.80;;
77152;SDS011;66124;51.146;17.072;2023-04-25T02:57:00;2.60;;;1.80;;
77152;SDS011;66124;51.146;17.072;2023-04-25T02:59:29;3.40;;;2.00;;
77152;SDS011;66124;51.146;17.072;2023-04-25T03:01:59;4.50;;;1.80;;
77152;SDS011;66124;51.146;17.072;2023-04-25T03:04:29;3.90;;;2.70;;
77152;SDS011;66124;51.146;17.072;2023-04-25T03:06:58;3.90;;;2.10;;
77152;SDS011;66124;51.146;17.072;2023-04-25T03:09:28;3.70;;;2.00;;
77152;SDS011;66124;51.146;17.072;2023-04-25T03:11:57;2.70;;;1.90;;
77152;SDS011;66124;51.146;17.072;2023-04-25T03:24:29;5.10;;;2.40;;
77152;SDS011;66124;51.146;17.072;2023-04-25T03:26:59;2.60;;;1.90;;
77152;SDS011;66124;51.146;17.072;2023-04-25T03:29:28;2.80;;;1.70;;
77152;SDS011;66124;51.146;17.072;2023-04-25T03:31:58;3.70;;;1.90;;
77152;SDS011;66124;51.146;17.072;2023-04-25T03:34:27;2.60;;;1.70;;
77152;SDS011;66124;51.146;17.072;2023-04-25T03:36:58;2.40;;;1.70;;
77152;SDS011;66124;51.146;17.072;2023-04-25T03:39:27;3.00;;;2.00;;
77152;SDS011;66124;51.146;17.072;2023-04-25T03:41:57;3.40;;;1.80;;
77152;SDS011;66124;51.146;17.072;2023-04-25T03:44:26;3.60;;;2.40;;
77152;SDS011;66124;51.146;17.072;2023-04-25T03:46:56;3.70;;;2.50;;
77152;SDS011;66124;51.146;17.072;2023-04-25T03:49:25;3.20;;;2.20;;
77152;SDS011;66124;51.146;17.072;2023-04-25T03:51:55;3.40;;;2.10;;
77152;SDS011;66124;51.146;17.072;2023-04-25T03:54:24;3.00;;;2.10;;
77152;SDS011;66124;51.146;17.072;2023-04-25T03:56:53;3.80;;;2.80;;
77152;SDS011;66124;51.146;17.072;2023-04-25T03:59:23;4.60;;;2.30;;
77152;SDS011;66124;51.146;17.072;2023-04-25T04:01:52;4.30;;;2.40;;
77152;SDS011;66124;51.146;17.072;2023-04-25T04:04:22;4.30;;;2.80;;
77152;SDS011;66124;51.146;17.072;2023-04-25T04:06:51;3.20;;;2.30;;
77152;SDS011;66124;51.146;17.072;2023-04-25T04:09:21;4.10;;;2.50;;
77152;SDS011;66124;51.146;17.072;2023-04-25T04:11:50;3.40;;;2.40;;
77152;SDS011;66124;51.146;17.072;2023-04-25T04:14:20;5.40;;;3.10;;
77152;SDS011;66124;51.146;17.072;2023-04-25T04:16:50;4.30;;;2.50;;
77152;SDS011;66124;51.146;17.072;2023-04-25T04:19:20;3.20;;;2.20;;
77152;SDS011;66124;51.146;17.072;2023-04-25T04:21:50;4.40;;;2.40;;
77152;SDS011;66124;51.146;17.072;2023-04-25T04:24:19;4.50;;;2.50;;
77152;SDS011;66124;51.146;17.072;2023-04-25T04:26:49;6.60;;;3.10;;
77152;SDS011;66124;51.146;17.072;2023-04-25T04:29:18;4.80;;;3.20;;
77152;SDS011;66124;51.146;17.072;2023-04-25T04:31:48;0.40;;;0.40;;
77152;SDS011;66124;51.146;17.072;2023-04-25T04:34:18;3.10;;;2.00;;
77152;SDS011;66124;51.146;17.072;2023-04-25T04:44:44;5.20;;;2.60;;
77152;SDS011;66124;51.146;17.072;2023-04-25T04:47:13;4.00;;;2.60;;
77152;SDS011;66124;51.146;17.072;2023-04-25T04:49:43;6.10;;;3.50;;
77152;SDS011;66124;51.146;17.072;2023-04-25T04:52:12;3.70;;;2.90;;
77152;SDS011;66124;51.146;17.072;2023-04-25T04:54:41;5.40;;;2.70;;
77152;SDS011;66124;51.146;17.072;2023-04-25T04:57:12;4.20;;;2.70;;
77152;SDS011;66124;51.146;17.072;2023-04-25T04:59:42;4.90;;;2.70;;
77152;SDS011;66124;51.146;17.072;2023-04-25T05:02:11;5.30;;;2.70;;
77152;SDS011;66124;51.146;17.072;2023-04-25T05:04:40;4.60;;;2.90;;
77152;SDS011;66124;51.146;17.072;2023-04-25T05:07:10;5.80;;;3.00;;
77152;SDS011;66124;51.146;17.072;2023-04-25T05:09:40;7.00;;;3.40;;
77152;SDS011;66124;51.146;17.072;2023-04-25T05:12:10;3.90;;;3.00;;
77152;SDS011;66124;51.146;17.072;2023-04-25T05:14:40;5.40;;;3.50;;
77152;SDS011;66124;51.146;17.072;2023-04-25T05:17:09;5.50;;;3.10;;
77152;SDS011;66124;51.146;17.072;2023-04-25T05:19:38;3.80;;;2.90;;
77152;SDS011;66124;51.146;17.072;2023-04-25T05:22:08;6.20;;;3.00;;
77152;SDS011;66124;51.146;17.072;2023-04-25T05:24:37;5.30;;;3.20;;
77152;SDS011;66124;51.146;17.072;2023-04-25T05:27:07;5.90;;;2.60;;
77152;SDS011;66124;51.146;17.072;2023-04-25T05:29:36;4.60;;;3.10;;
77152;SDS011;66124;51.146;17.072;2023-04-25T05:32:06;4.10;;;3.00;;
77152;SDS011;66124;51.146;17.072;2023-04-25T05:34:35;5.10;;;3.10;;
77152;SDS011;66124;51.146;17.072;2023-04-25T05:37:05;5.10;;;3.20;;
77152;SDS011;66124;51.146;17.072;2023-04-25T05:39:34;4.30;;;3.10;;
77152;SDS011;66124;51.146;17.072;2023-04-25T05:42:04;3.60;;;2.50;;
77152;SDS011;66124;51.146;17.072;2023-04-25T05:44:33;4.30;;;2.40;;
77152;SDS011;66124;51.146;17.072;2023-04-25T05:47:03;4.70;;;2.70;;
77152;SDS011;66124;51.146;17.072;2023-04-25T05:49:33;3.60;;;2.30;;
77152;SDS011;66124;51.146;17.072;2023-04-25T05:52:03;3.80;;;2.90;;
77152;SDS011;66124;51.146;17.072;2023-04-25T05:54:32;4.90;;;2.80;;
77152;SDS011;66124;51.146;17.072;2023-04-25T06:07:17;3.60;;;2.50;;
77152;SDS011;66124;51.146;17.072;2023-04-25T06:09:47;4.90;;;2.90;;
77152;SDS011;66124;51.146;17.072;2023-04-25T06:12:16;4.00;;;2.60;;
77152;SDS011;66124;51.146;17.072;2023-04-25T06:14:46;5.30;;;2.40;;
77152;SDS011;66124;51.146;17.072;2023-04-25T06:17:15;3.80;;;2.40;;
77152;SDS011;66124;51.146;17.072;2023-04-25T06:19:46;3.40;;;2.40;;
77152;SDS011;66124;51.146;17.072;2023-04-25T06:22:15;3.20;;;2.10;;
77152;SDS011;66124;51.146;17.072;2023-04-25T06:24:45;4.40;;;2.10;;
77152;SDS011;66124;51.146;17.072;2023-04-25T06:27:14;4.40;;;2.30;;
77152;SDS011;66124;51.146;17.072;2023-04-25T06:29:43;5.70;;;2.70;;
77152;SDS011;66124;51.146;17.072;2023-04-25T06:32:13;3.10;;;2.30;;
77152;SDS011;66124;51.146;17.072;2023-04-25T06:34:42;3.30;;;1.90;;
77152;SDS011;66124;51.146;17.072;2023-04-25T06:37:12;3.80;;;2.30;;
77152;SDS011;66124;51.146;17.072;2023-04-25T06:39:41;4.10;;;2.40;;
77152;SDS011;66124;51.146;17.072;2023-04-25T06:42:11;3.20;;;2.10;;
77152;SDS011;66124;51.146;17.072;2023-04-25T06:44:40;2.60;;;2.20;;
77152;SDS011;66124;51.146;17.072;2023-04-25T06:47:10;4.40;;;2.60;;
77152;SDS011;66124;51.146;17.072;2023-04-25T06:49:39;3.40;;;2.40;;
77152;SDS011;66124;51.146;17.072;2023-04-25T06:52:08;5.80;;;2.20;;
77152;SDS011;66124;51.146;17.072;2023-04-25T06:54:38;3.50;;;2.30;;
77152;SDS011;66124;51.146;17.072;2023-04-25T06:57:07;5.80;;;2.40;;
77152;SDS011;66124;51.146;17.072;2023-04-25T06:59:36;3.60;;;1.80;;
77152;SDS011;66124;51.146;17.072;2023-04-25T07:02:06;4.10;;;1.90;;
77152;SDS011;66124;51.146;17.072;2023-04-25T07:04:36;3.40;;;2.10;;
77152;SDS011;66124;51.146;17.072;2023-04-25T07:07:05;3.40;;;1.90;;
77152;SDS011;66124;51.146;17.072;2023-04-25T07:09:34;3.20;;;2.20;;
77152;SDS011;66124;51.146;17.072;2023-04-25T07:12:05;3.60;;;2.00;;
77152;SDS011;66124;51.146;17.072;2023-04-25T07:14:34;4.20;;;2.10;;
77152;SDS011;66124;51.146;17.072;2023-04-25T07:17:04;3.00;;;2.00;;
77152;SDS011;66124;51.146;17.072;2023-04-25T07:25:32;2.90;;;1.90;;
77152;SDS011;66124;51.146;17.072;2023-04-25T07:28:01;3.90;;;1.90;;
77152;SDS011;66124;51.146;17.072;2023-04-25T07:30:31;2.40;;;1.60;;
77152;SDS011;66124;51.146;17.072;2023-04-25T07:33:00;4.10;;;1.70;;
77152;SDS011;66124;51.146;17.072;2023-04-25T07:35:30;3.10;;;1.60;;
77152;SDS011;66124;51.146;17.072;2023-04-25T07:38:01;3.70;;;2.00;;
77152;SDS011;66124;51.146;17.072;2023-04-25T07:40:30;2.60;;;1.60;;
77152;SDS011;66124;51.146;17.072;2023-04-25T07:43:00;3.10;;;1.90;;
77152;SDS011;66124;51.146;17.072;2023-04-25T07:45:29;3.40;;;1.80;;
77152;SDS011;66124;51.146;17.072;2023-04-25T07:47:58;3.10;;;1.90;;
77152;SDS011;66124;51.146;17.072;2023-04-25T07:50:28;7.30;;;2.10;;
77152;SDS011;66124;51.146;17.072;2023-04-25T07:52:57;3.40;;;2.20;;
77152;SDS011;66124;51.146;17.072;2023-04-25T07:55:27;5.30;;;2.20;;
77152;SDS011;66124;51.146;17.072;2023-04-25T07:57:56;2.70;;;1.80;;
77152;SDS011;66124;51.146;17.072;2023-04-25T08:00:26;4.60;;;2.30;;
77152;SDS011;66124;51.146;17.072;2023-04-25T08:02:56;2.90;;;2.10;;
77152;SDS011;66124;51.146;17.072;2023-04-25T08:05:25;3.80;;;2.20;;
77152;SDS011;66124;51.146;17.072;2023-04-25T08:07:54;4.90;;;2.20;;
77152;SDS011;66124;51.146;17.072;2023-04-25T08:10:24;6.00;;;4.10;;
77152;SDS011;66124;51.146;17.072;2023-04-25T08:12:53;6.40;;;2.90;;
77152;SDS011;66124;51.146;17.072;2023-04-25T08:15:23;4.90;;;2.50;;
77152;SDS011;66124;51.146;17.072;2023-04-25T08:17:52;5.20;;;3.10;;
77152;SDS011;66124;51.146;17.072;2023-04-25T08:20:22;6.20;;;3.20;;
77152;SDS011;66124;51.146;17.072;2023-04-25T08:22:51;4.80;;;3.10;;
77152;SDS011;66124;51.146;17.072;2023-04-25T08:25:21;6.20;;;3.50;;
77152;SDS011;66124;51.146;17.072;2023-04-25T08:27:50;4.60;;;3.10;;
77152;SDS011;66124;51.146;17.072;2023-04-25T08:30:20;4.20;;;3.20;;
77152;SDS011;66124;51.146;17.072;2023-04-25T08:32:49;4.00;;;2.70;;
77152;SDS011;66124;51.146;17.072;2023-04-25T08:43:18;6.60;;;3.70;;
77152;SDS011;66124;51.146;17.072;2023-04-25T08:45:47;4.80;;;3.20;;
77152;SDS011;66124;51.146;17.072;2023-04-25T08:50:49;6.50;;;2.70;;
77152;SDS011;66124;51.146;17.072;2023-04-25T08:55:49;6.80;;;3.50;;
77152;SDS011;66124;51.146;17.072;2023-04-25T08:58:21;4.20;;;2.80;;
77152;SDS011;66124;51.146;17.072;2023-04-25T09:00:51;4.40;;;2.40;;
77152;SDS011;66124;51.146;17.072;2023-04-25T09:03:21;4.00;;;3.10;;
77152;SDS011;66124;51.146;17.072;2023-04-25T09:05:51;4.70;;;2.80;;
77152;SDS011;66124;51.146;17.072;2023-04-25T09:08:21;4.20;;;2.80;;
77152;SDS011;66124;51.146;17.072;2023-04-25T09:10:50;5.90;;;3.40;;
77152;SDS011;66124;51.146;17.072;2023-04-25T09:13:25;4.80;;;3.10;;
77152;SDS011;66124;51.146;17.072;2023-04-25T09:15:56;5.80;;;3.10;;
77152;SDS011;66124;51.146;17.072;2023-04-25T09:18:26;5.60;;;3.10;;
77152;SDS011;66124;51.146;17.072;2023-04-25T09:20:58;3.40;;;2.80;;
77152;SDS011;66124;51.146;17.072;2023-04-25T09:23:38;6.40;;;3.10;;
77152;SDS011;66124;51.146;17.072;2023-04-25T09:26:09;3.80;;;2.80;;
77152;SDS011;66124;51.146;17.072;2023-04-25T09:28:41;4.30;;;3.20;;
77152;SDS011;66124;51.146;17.072;2023-04-25T09:31:10;5.00;;;3.50;;
77152;SDS011;66124;51.146;17.072;2023-04-25T09:33:48;4.80;;;3.40;;
77152;SDS011;66124;51.146;17.072;2023-04-25T09:36:27;4.30;;;3.50;;
77152;SDS011;66124;51.146;17.072;2023-04-25T09:38:57;4.20;;;3.00;;
77152;SDS011;66124;51.146;17.072;2023-04-25T09:41:28;5.30;;;3.70;;
77152;SDS011;66124;51.146;17.072;2023-04-25T09:43:57;3.60;;;2.80;;
77152;SDS011;66124;51.146;17.072;2023-04-25T09:46:32;5.60;;;3.30;;
77152;SDS011;66124;51.146;17.072;2023-04-25T09:49:05;5.00;;;3.30;;
77152;SDS011;66124;51.146;17.072;2023-04-25T09:51:35;4.80;;;3.10;;
77152;SDS011;66124;51.146;17.072;2023-04-25T10:04:41;4.30;;;3.50;;
77152;SDS011;66124;51.146;17.072;2023-04-25T10:07:15;4.50;;;2.50;;
77152;SDS011;66124;51.146;17.072;2023-04-25T10:09:47;5.00;;;3.40;;
77152;SDS011;66124;51.146;17.072;2023-04-25T10:12:17;4.40;;;3.30;;
77152;SDS011;66124;51.146;17.072;2023-04-25T10:14:47;5.00;;;2.50;;
77152;SDS011;66124;51.146;17.072;2023-04-25T10:17:16;4.70;;;3.30;;
77152;SDS011;66124;51.146;17.072;2023-04-25T10:19:47;3.80;;;2.70;;
77152;SDS011;66124;51.146;17.072;2023-04-25T10:22:18;4.50;;;3.20;;
77152;SDS011;66124;51.146;17.072;2023-04-25T10:24:53;4.00;;;2.70;;
77152;SDS011;66124;51.146;17.072;2023-04-25T10:27:24;3.80;;;3.10;;
77152;SDS011;66124;51.146;17.072;2023-04-25T10:30:06;4.30;;;3.20;;
77152;SDS011;66124;51.146;17.072;2023-04-25T10:32:38;4.90;;;2.90;;
77152;SDS011;66124;51.146;17.072;2023-04-25T10:35:13;3.10;;;2.50;;
77152;SDS011;66124;51.146;17.072;2023-04-25T10:38:00;4.90;;;2.90;;
77152;SDS011;66124;51.146;17.072;2023-04-25T10:40:32;4.30;;;2.90;;
77152;SDS011;66124;51.146;17.072;2023-04-25T10:46:03;4.10;;;2.60;;
77152;SDS011;66124;51.146;17.072;2023-04-25T10:48:49;2.60;;;2.10;;
77152;SDS011;66124;51.146;17.072;2023-04-25T10:51:21;2.60;;;2.10;;
77152;SDS011;66124;51.146;17.072;2023-04-25T10:53:58;3.70;;;2.60;;
77152;SDS011;66124;51.146;17.072;2023-04-25T10:56:30;4.30;;;2.60;;
77152;SDS011;66124;51.146;17.072;2023-04-25T10:59:04;4.10;;;2.40;;
77152;SDS011;66124;51.146;17.072;2023-04-25T11:01:39;4.30;;;2.30;;
77152;SDS011;66124;51.146;17.072;2023-04-25T11:06:58;3.70;;;2.10;;
77152;SDS011;66124;51.146;17.072;2023-04-25T11:09:33;2.40;;;1.90;;
77152;SDS011;66124;51.146;17.072;2023-04-25T11:12:07;4.10;;;2.10;;
77152;SDS011;66124;51.146;17.072;2023-04-25T11:24:45;3.50;;;2.80;;
77152;SDS011;66124;51.146;17.072;2023-04-25T11:27:14;3.60;;;2.00;;
77152;SDS011;66124;51.146;17.072;2023-04-25T11:29:44;4.10;;;2.40;;
77152;SDS011;66124;51.146;17.072;2023-04-25T11:32:13;2.70;;;1.80;;
77152;SDS011;66124;51.146;17.072;2023-04-25T11:37:13;2.90;;;1.70;;
77152;SDS011;66124;51.146;17.072;2023-04-25T11:39:46;1.60;;;1.40;;
77152;SDS011;66124;51.146;17.072;2023-04-25T11:42:16;5.70;;;1.10;;
77152;SDS011;66124;51.146;17.072;2023-04-25T11:44:46;2.40;;;1.20;;
77152;SDS011;66124;51.146;17.072;2023-04-25T11:47:15;1.90;;;1.30;;
77152;SDS011;66124;51.146;17.072;2023-04-25T11:49:45;1.70;;;1.00;;
77152;SDS011;66124;51.146;17.072;2023-04-25T11:52:16;2.30;;;1.10;;
77152;SDS011;66124;51.146;17.072;2023-04-25T11:54:46;2.30;;;1.20;;
77152;SDS011;66124;51.146;17.072;2023-04-25T11:57:16;3.30;;;1.30;;
77152;SDS011;66124;51.146;17.072;2023-04-25T11:59:48;2.40;;;1.30;;
77152;SDS011;66124;51.146;17.072;2023-04-25T12:02:25;2.50;;;1.20;;
77152;SDS011;66124;51.146;17.072;2023-04-25T12:04:54;1.80;;;1.10;;
77152;SDS011;66124;51.146;17.072;2023-04-25T12:07:29;2.20;;;1.00;;
77152;SDS011;66124;51.146;17.072;2023-04-25T12:09:59;2.20;;;1.00;;
77152;SDS011;66124;51.146;17.072;2023-04-25T12:12:33;1.10;;;1.00;;
77152;SDS011;66124;51.146;17.072;2023-04-25T12:15:11;1.50;;;1.10;;
77152;SDS011;66124;51.146;17.072;2023-04-25T12:17:42;2.40;;;1.30;;
77152;SDS011;66124;51.146;17.072;2023-04-25T12:20:15;1.30;;;1.00;;
77152;SDS011;66124;51.146;17.072;2023-04-25T12:22:46;1.40;;;1.00;;
77152;SDS011;66124;51.146;17.072;2023-04-25T12:28:12;1.10;;;0.90;;
77152;SDS011;66124;51.146;17.072;2023-04-25T12:35:55;1.30;;;1.10;;
77152;SDS011;66124;51.146;17.072;2023-04-25T12:45:30;2.50;;;1.10;;
77152;SDS011;66124;51.146;17.072;2023-04-25T12:48:00;2.30;;;1.40;;
77152;SDS011;66124;51.146;17.072;2023-04-25T12:50:30;2.30;;;1.20;;
77152;SDS011;66124;51.146;17.072;2023-04-25T12:53:00;1.60;;;1.20;;
77152;SDS011;66124;51.146;17.072;2023-04-25T12:55:29;1.40;;;1.00;;
77152;SDS011;66124;51.146;17.072;2023-04-25T12:57:58;1.90;;;1.10;;
77152;SDS011;66124;51.146;17.072;2023-04-25T13:00:28;1.10;;;0.90;;
77152;SDS011;66124;51.146;17.072;2023-04-25T13:02:58;3.10;;;1.20;;
77152;SDS011;66124;51.146;17.072;2023-04-25T13:05:27;2.30;;;1.10;;
77152;SDS011;66124;51.146;17.072;2023-04-25T13:07:57;1.50;;;1.30;;
77152;SDS011;66124;51.146;17.072;2023-04-25T13:10:26;1.70;;;0.90;;
77152;SDS011;66124;51.146;17.072;2023-04-25T13:12:56;1.50;;;1.20;;
77152;SDS011;66124;51.146;17.072;2023-04-25T13:15:26;1.10;;;0.90;;
77152;SDS011;66124;51.146;17.072;2023-04-25T13:17:56;1.70;;;1.10;;
77152;SDS011;66124;51.146;17.072;2023-04-25T13:20:25;1.80;;;1.10;;
77152;SDS011;66124;51.146;17.072;2023-04-25T13:22:54;2.10;;;1.50;;
77152;SDS011;66124;51.146;17.072;2023-04-25T13:25:24;2.20;;;1.20;;
77152;SDS011;66124;51.146;17.072;2023-04-25T13:27:53;1.60;;;1.30;;
77152;SDS011;66124;51.146;17.072;2023-04-25T13:30:23;1.70;;;1.40;;
77152;SDS011;66124;51.146;17.072;2023-04-25T13:32:53;1.40;;;1.00;;
77152;SDS011;66124;51.146;17.072;2023-04-25T13:35:23;1.50;;;1.00;;
77152;SDS011;66124;51.146;17.072;2023-04-25T13:37:52;1.20;;;1.00;;
77152;SDS011;66124;51.146;17.072;2023-04-25T13:40:21;2.10;;;1.00;;
77152;SDS011;66124;51.146;17.072;2023-04-25T13:42:51;2.40;;;1.10;;
77152;SDS011;66124;51.146;17.072;2023-04-25T13:45:20;1.20;;;0.90;;
77152;SDS011;66124;51.146;17.072;2023-04-25T13:47:50;1.90;;;1.30;;
77152;SDS011;66124;51.146;17.072;2023-04-25T13:50:19;1.70;;;1.20;;
77152;SDS011;66124;51.146;17.072;2023-04-25T13:52:49;1.80;;;1.10;;
77152;SDS011;66124;51.146;17.072;2023-04-25T13:55:18;3.90;;;0.90;;
77152;SDS011;66124;51.146;17.072;2023-04-25T14:05:19;1.50;;;1.00;;
77152;SDS011;66124;51.146;17.072;2023-04-25T14:07:48;1.00;;;0.80;;
77152;SDS011;66124;51.146;17.072;2023-04-25T14:10:18;1.60;;;1.10;;
77152;SDS011;66124;51.146;17.072;2023-04-25T14:12:47;1.60;;;0.90;;
77152;SDS011;66124;51.146;17.072;2023-04-25T14:15:16;1.40;;;1.10;;
77152;SDS011;66124;51.146;17.072;2023-04-25T14:17:47;2.50;;;1.30;;
77152;SDS011;66124;51.146;17.072;2023-04-25T14:20:17;2.10;;;1.20;;
77152;SDS011;66124;51.146;17.072;2023-04-25T14:22:46;1.20;;;0.90;;
77152;SDS011;66124;51.146;17.072;2023-04-25T14:25:16;1.40;;;0.70;;
77152;SDS011;66124;51.146;17.072;2023-04-25T14:27:45;1.60;;;1.00;;
77152;SDS011;66124;51.146;17.072;2023-04-25T14:30:15;1.50;;;1.00;;
77152;SDS011;66124;51.146;17.072;2023-04-25T14:32:46;1.90;;;0.90;;
77152;SDS011;66124;51.146;17.072;2023-04-25T14:35:15;1.30;;;1.00;;
77152;SDS011;66124;51.146;17.072;2023-04-25T14:37:45;1.30;;;1.00;;
77152;SDS011;66124;51.146;17.072;2023-04-25T14:40:15;1.90;;;0.90;;
77152;SDS011;66124;51.146;17.072;2023-04-25T14:42:44;1.40;;;1.10;;
77152;SDS011;66124;51.146;17.072;2023-04-25T14:45:13;2.00;;;1.30;;
77152;SDS011;66124;51.146;17.072;2023-04-25T14:47:43;2.40;;;1.30;;
77152;SDS011;66124;51.146;17.072;2023-04-25T14:50:12;2.40;;;1.20;;
77152;SDS011;66124;51.146;17.072;2023-04-25T14:52:42;2.40;;;1.80;;
77152;SDS011;66124;51.146;17.072;2023-04-25T14:55:11;1.70;;;1.20;;
77152;SDS011;66124;51.146;17.072;2023-04-25T14:57:41;3.10;;;1.40;;
77152;SDS011;66124;51.146;17.072;2023-04-25T15:00:11;2.50;;;1.30;;
77152;SDS011;66124;51.146;17.072;2023-04-25T15:02:41;2.00;;;1.20;;
77152;SDS011;66124;51.146;17.072;2023-04-25T15:05:11;1.60;;;1.00;;
77152;SDS011;66124;51.146;17.072;2023-04-25T15:07:40;2.00;;;1.40;;
77152;SDS011;66124;51.146;17.072;2023-04-25T15:10:10;2.40;;;1.00;;
77152;SDS011;66124;51.146;17.072;2023-04-25T15:12:40;2.60;;;1.30;;
77152;SDS011;66124;51.146;17.072;2023-04-25T15:41:03;2.90;;;1.60;;
77152;SDS011;66124;51.146;17.072;2023-04-25T15:43:33;1.90;;;1.50;;
77152;SDS011;66124;51.146;17.072;2023-04-25T15:46:03;2.90;;;1.40;;
77152;SDS011;66124;51.146;17.072;2023-04-25T15:48:32;2.90;;;1.80;;
77152;SDS011;66124;51.146;17.072;2023-04-25T15:51:02;2.70;;;1.20;;
77152;SDS011;66124;51.146;17.072;2023-04-25T15:53:31;2.20;;;1.60;;
77152;SDS011;66124;51.146;17.072;2023-04-25T15:56:01;3.30;;;1.80;;
77152;SDS011;66124;51.146;17.072;2023-04-25T15:58:31;3.00;;;1.70;;
77152;SDS011;66124;51.146;17.072;2023-04-25T16:01:00;2.30;;;1.70;;
77152;SDS011;66124;51.146;17.072;2023-04-25T16:03:29;2.50;;;1.70;;
77152;SDS011;66124;51.146;17.072;2023-04-25T16:05:59;2.70;;;1.40;;
77152;SDS011;66124;51.146;17.072;2023-04-25T16:08:28;2.20;;;1.70;;
77152;SDS011;66124;51.146;17.072;2023-04-25T16:10:57;2.80;;;1.50;;
77152;SDS011;66124;51.146;17.072;2023-04-25T16:13:27;4.70;;;1.50;;
77152;SDS011;66124;51.146;17.072;2023-04-25T16:15:56;2.60;;;1.50;;
77152;SDS011;66124;51.146;17.072;2023-04-25T16:18:26;3.90;;;1.90;;
77152;SDS011;66124;51.146;17.072;2023-04-25T16:20:55;4.20;;;2.00;;
77152;SDS011;66124;51.146;17.072;2023-04-25T16:23:24;6.20;;;3.20;;
77152;SDS011;66124;51.146;17.072;2023-04-25T16:25:54;3.00;;;2.10;;
77152;SDS011;66124;51.146;17.072;2023-04-25T16:28:23;1.70;;;1.50;;
77152;SDS011;66124;51.146;17.072;2023-04-25T16:30:53;2.80;;;2.00;;
77152;SDS011;66124;51.146;17.072;2023-04-25T16:33:23;3.50;;;1.90;;
77152;SDS011;66124;51.146;17.072;2023-04-25T16:35:52;2.30;;;1.80;;
77152;SDS011;66124;51.146;17.072;2023-04-25T16:38:22;3.50;;;1.80;;
77152;SDS011;66124;51.146;17.072;2023-04-25T16:40:51;3.40;;;1.90;;
77152;SDS011;66124;51.146;17.072;2023-04-25T16:43:21;3.00;;;1.40;;
77152;SDS011;66124;51.146;17.072;2023-04-25T16:45:50;3.90;;;1.80;;
77152;SDS011;66124;51.146;17.072;2023-04-25T16:48:19;3.20;;;1.50;;
77152;SDS011;66124;51.146;17.072;2023-04-25T16:50:49;3.00;;;1.50;;
77152;SDS011;66124;51.146;17.072;2023-04-25T17:01:06;2.00;;;0.80;;
77152;SDS011;66124;51.146;17.072;2023-04-25T17:03:36;1.40;;;0.70;;
77152;SDS011;66124;51.146;17.072;2023-04-25T17:06:05;1.40;;;0.70;;
77152;SDS011;66124;51.146;17.072;2023-04-25T17:08:36;0.90;;;0.70;;
77152;SDS011;66124;51.146;17.072;2023-04-25T17:11:05;2.80;;;1.10;;
77152;SDS011;66124;51.146;17.072;2023-04-25T17:13:35;1.80;;;1.00;;
77152;SDS011;66124;51.146;17.072;2023-04-25T17:16:05;1.30;;;1.00;;
77152;SDS011;66124;51.146;17.072;2023-04-25T17:18:35;2.70;;;1.30;;
77152;SDS011;66124;51.146;17.072;2023-04-25T17:21:04;2.00;;;1.30;;